Time;durP1;ratioP1;P1;durP2;ratioP2;P2;SDS_P1;SDS_P2;PMS_P1;PMS_P2;Temp;Humidity;BMP_temperature;BMP_pressure;BME280_temperature;BME280_humidity;BME280_pressure;Samples;Min_cycle;Max_cycle;Signal;HPM_P1;HPM_P2
2022/11/24 00:01:18;;;;;;;8.60;4.10;;;5.30;99.90;;;;;;5020551;28;20196;-46
2022/11/24 00:03:47;;;;;;;5.00;3.50;;;5.30;99.90;;;;;;5001255;28;20208;-50
2022/11/24 00:06:16;;;;;;;4.67;4.07;;;5.30;99.90;;;;;;5012975;28;20223;-48
2022/11/24 00:08:45;;;;;;;5.00;3.90;;;5.30;99.90;;;;;;5023517;28;20208;-49
2022/11/24 00:11:15;;;;;;;6.50;3.40;;;5.30;99.90;;;;;;5011151;28;20203;-46
2022/11/24 00:13:42;;;;;;;5.50;4.00;;;5.30;99.90;;;;;;5010990;28;20200;-47
2022/11/24 00:16:11;;;;;;;6.70;4.00;;;5.30;99.90;;;;;;5013346;28;20212;-51
2022/11/24 00:18:38;;;;;;;6.07;3.20;;;5.30;99.90;;;;;;5008143;28;23828;-49
2022/11/24 00:21:05;;;;;;;7.70;4.23;;;5.30;99.90;;;;;;5016569;28;20211;-48
2022/11/24 00:23:34;;;;;;;7.30;3.90;;;5.30;99.90;;;;;;5020763;28;20196;-49
2022/11/24 00:26:08;;;;;;;8.63;4.47;;;5.30;99.90;;;;;;5012961;28;20632;-49
2022/11/24 00:28:36;;;;;;;9.03;3.93;;;5.30;99.90;;;;;;5006232;28;20203;-47
2022/11/24 00:31:04;;;;;;;7.57;4.43;;;5.30;99.90;;;;;;5022988;28;20204;-51
2022/11/24 00:33:32;;;;;;;5.80;3.90;;;5.30;99.90;;;;;;5015680;28;20228;-48
2022/11/24 00:36:00;;;;;;;9.53;3.80;;;5.20;99.90;;;;;;5002036;28;20223;-48
2022/11/24 00:38:27;;;;;;;7.93;4.10;;;5.20;99.90;;;;;;5019740;28;20176;-48
2022/11/24 00:40:55;;;;;;;9.20;4.70;;;5.20;99.90;;;;;;5013705;28;20220;-46
2022/11/24 00:43:22;;;;;;;9.77;4.17;;;5.30;99.90;;;;;;5013430;28;20196;-49
2022/11/24 00:45:49;;;;;;;10.50;4.50;;;5.20;99.90;;;;;;5017277;28;20227;-47
2022/11/24 00:48:16;;;;;;;7.90;3.97;;;5.20;99.90;;;;;;5020372;28;20223;-50
2022/11/24 00:50:42;;;;;;;6.57;3.93;;;5.20;99.90;;;;;;5007738;28;20745;-50
2022/11/24 00:53:09;;;;;;;8.70;4.23;;;5.20;99.90;;;;;;5020815;28;20625;-51
2022/11/24 00:55:37;;;;;;;9.40;4.00;;;5.20;99.90;;;;;;5015330;28;20341;-47
2022/11/24 00:58:04;;;;;;;7.53;4.00;;;5.20;99.90;;;;;;5022782;28;20704;-51
2022/11/24 01:00:32;;;;;;;6.97;4.23;;;5.20;99.90;;;;;;5010865;28;21005;-47
2022/11/24 01:02:59;;;;;;;5.33;3.47;;;5.20;99.90;;;;;;5022609;28;20311;-47
2022/11/24 01:05:25;;;;;;;4.50;4.03;;;5.20;99.90;;;;;;5019180;28;20219;-48
2022/11/24 01:07:52;;;;;;;7.00;4.17;;;5.20;99.90;;;;;;5007573;28;20226;-47
2022/11/24 01:10:19;;;;;;;5.03;4.00;;;5.20;99.90;;;;;;5005226;28;20873;-48
2022/11/24 01:12:46;;;;;;;7.87;4.33;;;5.20;99.90;;;;;;5011518;28;20204;-48
2022/11/24 01:15:15;;;;;;;6.20;4.40;;;5.20;99.90;;;;;;5006356;28;20235;-50
2022/11/24 01:17:42;;;;;;;7.13;4.00;;;5.20;99.90;;;;;;5016654;28;20283;-49
2022/11/24 01:20:10;;;;;;;6.17;4.30;;;5.20;99.90;;;;;;5020156;28;20211;-46
2022/11/24 01:22:37;;;;;;;8.07;4.33;;;5.20;99.90;;;;;;5001027;28;20284;-49
2022/11/24 01:25:05;;;;;;;7.83;4.40;;;5.20;99.90;;;;;;5014335;28;20294;-48
2022/11/24 01:27:32;;;;;;;6.73;3.90;;;5.20;99.90;;;;;;5012429;28;20219;-46
2022/11/24 01:29:59;;;;;;;5.70;4.17;;;5.20;99.90;;;;;;5025521;28;20249;-46
2022/11/24 01:32:27;;;;;;;8.90;4.77;;;5.20;99.90;;;;;;5015654;28;20235;-47
2022/11/24 01:34:54;;;;;;;8.83;4.83;;;5.20;99.90;;;;;;5027149;28;20199;-51
2022/11/24 01:37:20;;;;;;;4.93;4.43;;;5.20;99.90;;;;;;5023381;28;20291;-46
2022/11/24 01:39:47;;;;;;;7.00;4.47;;;5.20;99.90;;;;;;5011461;28;20235;-48
2022/11/24 01:42:14;;;;;;;8.83;4.80;;;5.20;99.90;;;;;;5009026;28;20211;-48
2022/11/24 01:44:42;;;;;;;5.23;4.80;;;5.20;99.90;;;;;;5020230;28;20200;-49
2022/11/24 01:47:24;;;;;;;7.70;4.67;;;5.20;99.90;;;;;;5016695;28;20219;-51
2022/11/24 01:49:56;;;;;;;6.83;4.20;;;5.20;99.90;;;;;;5026955;28;20294;-48
2022/11/24 01:52:29;;;;;;;6.37;4.00;;;5.20;99.90;;;;;;5023040;28;20351;-48
2022/11/24 01:54:58;;;;;;;8.63;4.37;;;5.20;99.90;;;;;;5011056;28;20219;-49
2022/11/24 01:57:30;;;;;;;7.40;3.97;;;5.20;99.90;;;;;;5017705;28;20942;-47
2022/11/24 02:00:02;;;;;;;7.83;4.30;;;5.30;99.90;;;;;;5026154;28;20199;-51
2022/11/24 02:02:41;;;;;;;5.70;4.10;;;5.20;99.90;;;;;;5017449;28;20584;-46
2022/11/24 02:05:14;;;;;;;5.37;3.97;;;5.30;99.90;;;;;;5017336;28;20295;-47
2022/11/24 02:07:41;;;;;;;6.97;4.53;;;5.30;99.90;;;;;;5026431;28;20238;-49
2022/11/24 02:10:11;;;;;;;6.60;4.50;;;5.30;99.90;;;;;;5009542;28;20208;-53
2022/11/24 02:12:39;;;;;;;8.57;5.43;;;5.30;99.90;;;;;;5018444;28;20207;-48
2022/11/24 02:15:08;;;;;;;6.27;4.40;;;5.30;99.90;;;;;;5018205;28;20215;-47
2022/11/24 02:17:36;;;;;;;6.43;4.43;;;5.30;99.90;;;;;;5015463;28;20262;-46
2022/11/24 02:20:06;;;;;;;10.23;4.80;;;5.30;99.90;;;;;;5024934;28;20226;-48
2022/11/24 02:22:43;;;;;;;11.53;4.57;;;5.30;99.90;;;;;;5024866;28;20827;-47
2022/11/24 02:25:22;;;;;;;6.27;4.93;;;5.30;99.90;;;;;;5011539;28;20235;-49
2022/11/24 02:27:52;;;;;;;7.43;4.67;;;5.30;99.90;;;;;;5014108;28;20243;-47
2022/11/24 02:30:19;;;;;;;7.73;5.10;;;5.30;99.90;;;;;;5009332;28;20207;-47
2022/11/24 02:32:46;;;;;;;5.30;4.50;;;5.30;99.90;;;;;;5012652;28;20208;-48
2022/11/24 02:35:13;;;;;;;10.90;5.27;;;5.30;99.90;;;;;;5017401;28;20219;-51
2022/11/24 02:37:40;;;;;;;8.50;5.20;;;5.30;99.90;;;;;;5025602;28;20238;-46
2022/11/24 02:40:09;;;;;;;9.73;4.73;;;5.30;99.90;;;;;;5012608;28;20204;-47
2022/11/24 02:42:41;;;;;;;7.37;4.43;;;5.30;99.90;;;;;;5013185;28;20716;-49
2022/11/24 02:45:11;;;;;;;7.57;4.00;;;5.30;99.90;;;;;;5020808;28;20228;-52
2022/11/24 02:47:38;;;;;;;7.17;4.70;;;5.30;99.90;;;;;;5019887;28;20224;-46
2022/11/24 02:50:06;;;;;;;6.53;4.63;;;5.30;99.90;;;;;;5023667;28;20200;-50
2022/11/24 02:52:33;;;;;;;8.33;4.33;;;5.30;99.90;;;;;;5023462;28;20203;-47
2022/11/24 02:55:00;;;;;;;15.00;5.13;;;5.20;99.90;;;;;;5024555;28;20227;-46
2022/11/24 02:57:28;;;;;;;6.07;4.27;;;5.20;99.90;;;;;;5003962;28;20926;-51
2022/11/24 02:59:55;;;;;;;7.83;4.80;;;5.20;99.90;;;;;;5015357;28;20200;-49
2022/11/24 03:02:23;;;;;;;5.97;4.37;;;5.10;99.90;;;;;;5015133;28;20230;-47
2022/11/24 03:04:50;;;;;;;10.60;4.87;;;5.10;99.90;;;;;;5025303;28;20274;-51
2022/11/24 03:07:16;;;;;;;11.50;4.80;;;5.10;99.90;;;;;;5021582;28;20220;-48
2022/11/24 03:09:43;;;;;;;6.37;4.47;;;5.10;99.90;;;;;;5025331;28;20800;-50
2022/11/24 03:12:10;;;;;;;5.67;4.37;;;5.10;99.90;;;;;;5007157;28;20215;-48
2022/11/24 03:14:37;;;;;;;8.73;5.53;;;5.10;99.90;;;;;;5015888;28;20208;-46
2022/11/24 03:17:04;;;;;;;9.30;4.43;;;5.10;99.90;;;;;;5021591;28;20707;-49
2022/11/24 03:19:32;;;;;;;9.07;4.50;;;5.10;99.90;;;;;;5020155;28;20210;-46
2022/11/24 03:21:59;;;;;;;8.43;4.30;;;5.20;99.90;;;;;;5023712;28;20232;-52
2022/11/24 03:24:26;;;;;;;5.50;4.43;;;5.10;99.90;;;;;;5020565;28;20304;-46
2022/11/24 03:26:53;;;;;;;7.10;4.33;;;5.10;99.90;;;;;;5024444;28;20281;-49
2022/11/24 03:29:20;;;;;;;7.13;4.80;;;5.10;99.90;;;;;;4998881;28;20208;-48
2022/11/24 03:31:47;;;;;;;10.70;4.70;;;5.10;99.90;;;;;;5023256;28;20196;-46
2022/11/24 03:34:13;;;;;;;9.50;4.73;;;5.00;99.90;;;;;;5012527;28;20661;-50
2022/11/24 03:36:41;;;;;;;7.90;4.40;;;5.00;99.90;;;;;;5021809;28;20220;-48
2022/11/24 03:39:08;;;;;;;5.53;4.83;;;5.00;99.90;;;;;;5021734;28;20203;-49
2022/11/24 03:41:35;;;;;;;13.20;4.93;;;5.00;99.90;;;;;;5023462;28;20200;-49
2022/11/24 03:44:02;;;;;;;12.43;4.47;;;5.00;99.90;;;;;;5007434;28;20236;-48
2022/11/24 03:46:29;;;;;;;7.47;5.00;;;5.10;99.90;;;;;;5010780;28;20767;-48
2022/11/24 03:48:56;;;;;;;6.83;4.67;;;5.10;99.90;;;;;;5018057;28;20270;-51
2022/11/24 03:51:23;;;;;;;5.17;4.67;;;5.10;99.90;;;;;;5021000;28;20208;-51
2022/11/24 03:53:52;;;;;;;9.77;4.77;;;5.10;99.90;;;;;;5024034;28;20204;-48
2022/11/24 03:56:20;;;;;;;7.60;4.93;;;5.10;99.90;;;;;;5020358;28;20224;-46
2022/11/24 03:58:46;;;;;;;10.67;4.93;;;5.10;99.90;;;;;;5009180;28;20212;-47
2022/11/24 04:01:13;;;;;;;6.53;4.70;;;5.20;99.90;;;;;;5011949;28;20212;-51
2022/11/24 04:03:40;;;;;;;8.63;5.20;;;5.20;99.90;;;;;;5017959;28;20216;-48
2022/11/24 04:06:07;;;;;;;4.70;4.30;;;5.20;99.90;;;;;;5021505;28;20231;-49
2022/11/24 04:08:34;;;;;;;9.83;4.93;;;5.20;99.90;;;;;;5022984;28;20290;-49
2022/11/24 04:11:03;;;;;;;9.63;5.23;;;5.20;99.90;;;;;;5022744;28;20193;-50
2022/11/24 04:13:29;;;;;;;8.10;5.00;;;5.20;99.90;;;;;;5006789;28;20214;-47
2022/11/24 04:15:55;;;;;;;7.77;4.90;;;5.20;99.90;;;;;;5017240;28;20224;-50
2022/11/24 04:18:22;;;;;;;5.87;5.13;;;5.30;99.90;;;;;;5020469;28;20188;-46
2022/11/24 04:20:50;;;;;;;6.87;5.13;;;5.30;99.90;;;;;;5017084;28;20219;-48
2022/11/24 04:23:17;;;;;;;10.13;5.20;;;5.30;99.90;;;;;;5019481;28;20192;-52
2022/11/24 04:25:44;;;;;;;9.77;5.37;;;5.30;99.90;;;;;;5023341;28;20224;-46
2022/11/24 04:28:13;;;;;;;5.40;4.90;;;5.30;99.90;;;;;;5007747;28;20220;-49
2022/11/24 04:30:43;;;;;;;9.50;4.77;;;5.30;99.90;;;;;;5016990;28;20215;-51
2022/11/24 04:33:10;;;;;;;10.00;5.13;;;5.30;99.90;;;;;;5020159;28;20649;-51
2022/11/24 04:35:36;;;;;;;8.13;5.13;;;5.30;99.90;;;;;;5017062;28;20224;-46
2022/11/24 04:38:04;;;;;;;12.10;6.10;;;5.40;99.90;;;;;;5021763;28;20192;-49
2022/11/24 04:40:31;;;;;;;6.70;5.30;;;5.40;99.90;;;;;;5021880;28;20910;-48
2022/11/24 04:42:58;;;;;;;5.73;4.73;;;5.40;99.90;;;;;;5022359;28;20571;-48
2022/11/24 04:45:26;;;;;;;8.17;5.30;;;5.40;99.90;;;;;;5005033;28;20215;-48
2022/11/24 04:47:53;;;;;;;9.20;4.87;;;5.40;99.90;;;;;;5006385;28;20711;-51
2022/11/24 04:50:20;;;;;;;7.27;4.63;;;5.40;99.90;;;;;;5018122;28;20648;-47
2022/11/24 04:52:47;;;;;;;7.80;5.40;;;5.40;99.90;;;;;;5020483;28;20207;-49
2022/11/24 04:55:14;;;;;;;10.37;5.40;;;5.40;99.90;;;;;;5022625;28;20235;-48
2022/11/24 04:57:42;;;;;;;8.00;5.30;;;5.40;99.90;;;;;;5016383;28;20197;-47
2022/11/24 05:00:10;;;;;;;9.20;5.53;;;5.50;99.90;;;;;;5002908;28;20280;-48
2022/11/24 05:02:39;;;;;;;9.07;5.40;;;5.50;99.90;;;;;;5009737;28;20684;-50
2022/11/24 05:05:07;;;;;;;12.97;5.20;;;5.50;99.90;;;;;;5002569;28;20290;-48
2022/11/24 05:07:34;;;;;;;12.13;5.30;;;5.50;99.90;;;;;;5017421;28;20200;-48
2022/11/24 05:12:54;;;;;;;10.57;5.50;;;5.50;99.90;;;;;;5011935;28;20215;-47
2022/11/24 05:15:22;;;;;;;8.63;5.30;;;5.50;99.90;;;;;;5010021;28;20727;-49
2022/11/24 05:17:50;;;;;;;8.97;5.50;;;5.50;99.90;;;;;;4999056;28;20207;-52
2022/11/24 05:20:18;;;;;;;7.93;5.17;;;5.50;99.90;;;;;;5015650;28;20204;-48
2022/11/24 05:22:45;;;;;;;9.67;5.87;;;5.50;99.90;;;;;;5020699;28;20303;-49
2022/11/24 05:25:13;;;;;;;9.40;5.23;;;5.60;99.90;;;;;;5021888;28;20270;-52
2022/11/24 05:27:40;;;;;;;9.13;5.67;;;5.60;99.90;;;;;;5021566;28;20210;-49
2022/11/24 05:30:09;;;;;;;9.40;5.40;;;5.60;99.90;;;;;;5020286;28;20188;-46
2022/11/24 05:32:36;;;;;;;12.23;5.63;;;5.60;99.90;;;;;;5008052;28;20199;-50
2022/11/24 05:35:05;;;;;;;12.13;5.87;;;5.60;99.90;;;;;;5007845;28;20223;-46
2022/11/24 05:37:32;;;;;;;9.37;5.57;;;5.60;99.90;;;;;;5013668;28;20196;-46
2022/11/24 05:39:58;;;;;;;7.33;5.27;;;5.60;99.90;;;;;;5003618;28;20196;-47
2022/11/24 05:42:40;;;;;;;12.47;6.17;;;5.60;99.90;;;;;;5008906;28;20219;-48
2022/11/24 05:45:10;;;;;;;14.40;5.67;;;5.60;99.90;;;;;;5016959;28;20219;-52
2022/11/24 05:47:38;;;;;;;9.43;5.73;;;5.60;99.90;;;;;;4991636;28;20208;-47
2022/11/24 05:50:07;;;;;;;7.43;5.53;;;5.70;99.90;;;;;;5009978;28;20228;-47
2022/11/24 05:52:34;;;;;;;12.47;6.03;;;5.60;99.90;;;;;;5010245;28;20684;-48
2022/11/24 05:55:02;;;;;;;9.23;5.77;;;5.70;99.90;;;;;;5014931;28;20223;-47
2022/11/24 05:57:29;;;;;;;14.50;6.13;;;5.70;99.90;;;;;;5011357;28;20655;-50
2022/11/24 05:59:56;;;;;;;10.60;5.90;;;5.70;99.90;;;;;;5007039;28;22784;-46
2022/11/24 06:02:23;;;;;;;9.00;5.77;;;5.70;99.90;;;;;;5012996;28;20200;-52
2022/11/24 06:04:50;;;;;;;12.93;6.10;;;5.70;99.90;;;;;;5001976;28;20836;-46
2022/11/24 06:07:18;;;;;;;9.97;5.40;;;5.70;99.90;;;;;;5012702;28;20589;-50
2022/11/24 06:09:45;;;;;;;6.97;5.27;;;5.70;99.90;;;;;;5012995;28;20220;-51
2022/11/24 06:12:13;;;;;;;14.03;6.27;;;5.70;99.90;;;;;;5017275;28;20231;-49
2022/11/24 06:14:40;;;;;;;9.67;5.20;;;5.70;99.90;;;;;;5016378;28;20211;-50
2022/11/24 06:17:07;;;;;;;11.00;5.90;;;5.70;99.90;;;;;;5013498;28;20208;-50
2022/11/24 06:19:34;;;;;;;11.90;5.60;;;5.70;99.90;;;;;;5003134;28;20320;-50
2022/11/24 06:22:00;;;;;;;9.20;5.27;;;5.70;99.90;;;;;;5004081;28;20196;-46
2022/11/24 06:24:28;;;;;;;10.00;5.40;;;5.70;99.90;;;;;;5024162;28;20197;-51
2022/11/24 06:26:55;;;;;;;15.17;6.23;;;5.70;99.90;;;;;;5016713;28;20232;-52
2022/11/24 06:29:23;;;;;;;14.30;5.90;;;5.70;99.90;;;;;;5025367;28;20219;-46
2022/11/24 06:31:49;;;;;;;10.70;5.87;;;5.70;99.90;;;;;;5015468;28;20215;-47
2022/11/24 06:34:16;;;;;;;11.93;5.73;;;5.70;99.90;;;;;;5003543;28;20322;-48
2022/11/24 06:36:43;;;;;;;12.50;5.80;;;5.70;99.90;;;;;;5015592;28;20278;-49
2022/11/24 06:39:10;;;;;;;11.57;5.63;;;5.70;99.90;;;;;;5010948;28;20960;-48
2022/11/24 06:41:38;;;;;;;12.40;6.20;;;5.70;99.90;;;;;;5014146;28;20280;-45
2022/11/24 06:44:05;;;;;;;12.17;6.20;;;5.70;99.90;;;;;;5010905;28;20208;-46
2022/11/24 06:46:33;;;;;;;9.60;6.13;;;5.80;99.90;;;;;;5012032;28;20227;-49
2022/11/24 06:49:01;;;;;;;14.43;6.27;;;5.80;99.90;;;;;;5002790;28;21969;-46
2022/11/24 06:51:28;;;;;;;9.70;6.20;;;5.80;99.90;;;;;;5016661;28;20258;-47
2022/11/24 06:53:55;;;;;;;8.47;5.53;;;5.70;99.90;;;;;;5002840;28;20278;-47
2022/11/24 06:56:22;;;;;;;9.23;6.33;;;5.70;99.90;;;;;;5016891;28;20220;-48
2022/11/24 06:58:52;;;;;;;11.60;5.77;;;5.70;99.90;;;;;;5021163;28;20200;-51
2022/11/24 07:01:22;;;;;;;11.27;6.00;;;5.70;99.90;;;;;;5003087;28;20237;-47
2022/11/24 07:03:49;;;;;;;12.67;5.63;;;5.60;99.90;;;;;;5015138;28;20196;-47
2022/11/24 07:06:17;;;;;;;11.60;5.47;;;5.60;99.90;;;;;;5003524;28;20224;-47
2022/11/24 07:08:44;;;;;;;10.27;5.17;;;5.60;99.90;;;;;;5009151;28;20521;-49
2022/11/24 07:11:14;;;;;;;11.00;5.97;;;5.60;99.90;;;;;;5013665;28;20200;-50
2022/11/24 07:13:41;;;;;;;12.67;6.20;;;5.50;99.90;;;;;;5023068;28;20663;-47
2022/11/24 07:16:19;;;;;;;9.27;5.07;;;5.50;99.90;;;;;;5015366;28;20242;-45
2022/11/24 07:18:48;;;;;;;9.67;5.73;;;5.50;99.90;;;;;;5022179;28;20644;-52
2022/11/24 07:21:15;;;;;;;8.23;5.40;;;5.40;99.90;;;;;;4990272;28;20608;-46
2022/11/24 07:23:42;;;;;;;10.60;5.43;;;5.40;99.90;;;;;;5021713;28;20211;-49
2022/11/24 07:26:10;;;;;;;8.70;5.20;;;5.40;99.90;;;;;;5016705;28;20234;-49
2022/11/24 07:28:38;;;;;;;7.70;5.20;;;5.40;99.90;;;;;;5024960;28;20255;-47
2022/11/24 07:31:06;;;;;;;8.83;5.93;;;5.50;99.90;;;;;;5018810;28;20657;-48
2022/11/24 07:33:35;;;;;;;9.80;5.77;;;5.50;99.90;;;;;;5001847;28;20274;-48
2022/11/24 07:36:04;;;;;;;7.33;5.50;;;5.40;99.90;;;;;;4985664;28;20255;-46
2022/11/24 07:38:31;;;;;;;9.20;5.70;;;5.40;99.90;;;;;;5007938;28;20207;-46
2022/11/24 07:41:02;;;;;;;8.00;6.00;;;5.40;99.90;;;;;;4998319;28;22439;-50
2022/11/24 07:43:30;;;;;;;12.93;5.60;;;5.40;99.90;;;;;;5009909;28;20901;-45
2022/11/24 07:45:57;;;;;;;13.90;6.37;;;5.50;99.90;;;;;;5007941;28;20220;-50
2022/11/24 07:48:24;;;;;;;9.73;6.30;;;5.50;99.90;;;;;;5009397;28;20271;-45
2022/11/24 07:50:52;;;;;;;11.70;5.53;;;5.50;99.90;;;;;;5001515;28;20208;-47
2022/11/24 07:53:18;;;;;;;12.83;6.43;;;5.60;99.90;;;;;;4992283;28;20219;-46
2022/11/24 07:55:52;;;;;;;18.70;6.60;;;5.60;99.90;;;;;;5004359;28;20226;-50
2022/11/24 07:58:19;;;;;;;15.83;6.30;;;5.60;99.90;;;;;;5005998;28;20204;-47
2022/11/24 08:00:46;;;;;;;10.93;6.07;;;5.60;99.90;;;;;;5012944;28;20254;-46
2022/11/24 08:03:13;;;;;;;13.77;6.50;;;5.60;99.90;;;;;;5000454;28;20297;-48
2022/11/24 08:05:40;;;;;;;12.83;7.13;;;5.70;99.90;;;;;;5010264;28;20222;-46
2022/11/24 08:08:08;;;;;;;10.47;5.90;;;5.70;99.90;;;;;;4989226;28;20828;-47
2022/11/24 08:10:34;;;;;;;11.17;6.43;;;5.70;99.90;;;;;;5008847;28;20610;-49
2022/11/24 08:13:03;;;;;;;12.00;6.97;;;5.70;99.90;;;;;;4994474;28;20223;-48
2022/11/24 08:15:29;;;;;;;10.83;7.03;;;5.80;99.90;;;;;;5018369;28;20266;-48
2022/11/24 08:17:56;;;;;;;16.90;7.93;;;5.80;99.90;;;;;;5003286;28;20230;-44
2022/11/24 08:20:23;;;;;;;10.53;6.70;;;5.90;99.90;;;;;;5020530;28;20196;-45
2022/11/24 08:22:56;;;;;;;10.80;7.37;;;5.90;99.90;;;;;;5001664;28;20188;-47
2022/11/24 08:25:25;;;;;;;12.50;7.13;;;6.00;99.90;;;;;;4998974;28;20221;-48
2022/11/24 08:27:52;;;;;;;12.20;6.83;;;6.00;99.90;;;;;;5007596;28;20690;-50
2022/11/24 08:30:19;;;;;;;9.10;6.77;;;6.00;99.90;;;;;;5016435;28;20212;-45
2022/11/24 08:32:46;;;;;;;13.17;7.47;;;6.00;99.90;;;;;;5012429;28;20295;-51
2022/11/24 08:35:13;;;;;;;12.30;7.37;;;6.10;99.90;;;;;;5000112;28;20224;-48
2022/11/24 08:37:39;;;;;;;12.47;7.80;;;6.10;99.90;;;;;;5001758;28;20294;-49
2022/11/24 08:40:08;;;;;;;19.13;7.27;;;6.10;99.90;;;;;;4992512;28;20226;-48
2022/11/24 08:42:36;;;;;;;16.83;9.07;;;6.10;99.90;;;;;;4997223;28;22318;-47
2022/11/24 08:45:03;;;;;;;14.90;8.63;;;6.20;99.90;;;;;;5013411;28;20649;-48
2022/11/24 08:47:29;;;;;;;14.57;8.13;;;6.20;99.90;;;;;;5003120;28;20261;-49
2022/11/24 08:49:56;;;;;;;15.00;7.20;;;6.20;99.90;;;;;;5009810;28;20228;-47
2022/11/24 08:52:23;;;;;;;16.60;7.23;;;6.20;99.90;;;;;;5012519;28;20203;-47
2022/11/24 08:54:50;;;;;;;16.23;8.13;;;6.20;99.90;;;;;;5005250;28;20269;-46
2022/11/24 08:57:17;;;;;;;16.60;6.60;;;6.20;99.90;;;;;;5007587;28;20219;-49
2022/11/24 08:59:45;;;;;;;15.97;7.67;;;6.30;99.90;;;;;;5005566;28;20199;-46
2022/11/24 09:02:12;;;;;;;10.37;7.30;;;6.30;99.90;;;;;;5016670;28;20283;-50
2022/11/24 09:04:39;;;;;;;15.03;8.00;;;6.30;99.90;;;;;;5002492;28;20220;-47
2022/11/24 09:07:07;;;;;;;14.23;7.60;;;6.40;99.90;;;;;;5015556;28;20200;-51
2022/11/24 09:09:34;;;;;;;18.87;8.10;;;6.40;99.90;;;;;;5004470;28;20321;-49
2022/11/24 09:12:00;;;;;;;13.63;8.40;;;6.40;99.90;;;;;;4996154;28;20214;-52
2022/11/24 09:14:28;;;;;;;17.83;7.60;;;6.50;99.90;;;;;;5006596;28;20205;-47
2022/11/24 09:16:56;;;;;;;13.50;7.83;;;6.50;99.90;;;;;;5016134;28;20269;-49
2022/11/24 09:19:23;;;;;;;14.57;8.17;;;6.60;99.90;;;;;;5012084;28;20199;-50
2022/11/24 09:21:50;;;;;;;17.40;7.80;;;6.70;99.90;;;;;;5003928;28;20215;-49
2022/11/24 09:24:17;;;;;;;19.17;7.93;;;6.70;99.90;;;;;;5002407;28;20207;-48
2022/11/24 09:26:44;;;;;;;19.13;8.47;;;6.70;99.90;;;;;;4997482;28;20224;-52
2022/11/24 09:29:11;;;;;;;14.73;7.70;;;6.80;99.90;;;;;;5005763;28;20682;-49
2022/11/24 09:31:38;;;;;;;18.10;8.00;;;6.80;99.90;;;;;;5013836;28;20212;-48
2022/11/24 09:34:11;;;;;;;15.77;7.70;;;6.90;99.90;;;;;;5014708;28;20188;-53
2022/11/24 09:36:38;;;;;;;16.50;7.47;;;6.90;99.90;;;;;;5007468;28;20235;-46
2022/11/24 09:39:05;;;;;;;15.87;7.70;;;6.90;99.90;;;;;;5008457;28;20193;-51
2022/11/24 09:41:58;;;;;;;15.80;7.13;;;6.90;99.90;;;;;;4992430;28;20737;-53
2022/11/24 09:44:44;;;;;;;20.00;7.80;;;7.00;99.90;;;;;;5000739;28;20223;-51
2022/11/24 09:47:20;;;;;;;14.00;7.40;;;7.00;99.90;;;;;;5005859;28;20227;-51
2022/11/24 09:49:54;;;;;;;17.03;8.13;;;7.10;99.90;;;;;;5008243;28;20230;-48
2022/11/24 09:52:25;;;;;;;12.20;6.77;;;7.10;99.90;;;;;;5004335;28;20208;-49
2022/11/24 09:54:57;;;;;;;16.57;7.33;;;7.10;99.90;;;;;;5017606;28;20204;-48
2022/11/24 09:57:26;;;;;;;12.17;7.10;;;7.20;99.90;;;;;;4991023;28;20294;-49
2022/11/24 09:59:59;;;;;;;19.10;7.93;;;7.20;99.90;;;;;;5014112;28;20200;-51
2022/11/24 10:02:26;;;;;;;15.93;7.30;;;7.30;99.90;;;;;;5006095;28;20192;-53
2022/11/24 10:04:55;;;;;;;12.70;6.97;;;7.30;99.90;;;;;;5015649;28;20212;-52
2022/11/24 10:07:27;;;;;;;13.87;7.00;;;7.40;99.90;;;;;;5007713;28;21419;-55
2022/11/24 10:10:00;;;;;;;13.53;7.13;;;7.50;99.90;;;;;;5019835;28;20209;-55
2022/11/24 10:12:40;;;;;;;15.63;7.27;;;7.50;99.90;;;;;;4995875;28;20356;-54
2022/11/24 10:15:24;;;;;;;17.00;7.67;;;7.60;99.90;;;;;;5008648;28;21013;-54
2022/11/24 10:18:16;;;;;;;19.37;8.00;;;7.60;99.90;;;;;;5011277;28;20199;-52
2022/11/24 10:20:55;;;;;;;17.30;8.40;;;7.70;99.90;;;;;;5018370;28;20691;-54
2022/11/24 10:23:36;;;;;;;18.73;8.30;;;7.70;99.90;;;;;;5006411;28;20318;-59
2022/11/24 10:26:08;;;;;;;14.87;6.70;;;7.80;99.90;;;;;;5020982;28;20244;-59
2022/11/24 10:28:40;;;;;;;15.63;7.50;;;7.80;99.90;;;;;;4996537;28;20216;-55
2022/11/24 10:31:21;;;;;;;14.57;7.63;;;7.90;99.90;;;;;;5013881;28;20737;-55
2022/11/24 10:33:48;;;;;;;15.83;6.93;;;8.00;99.90;;;;;;5008990;28;20230;-58
2022/11/24 10:36:21;;;;;;;21.23;7.37;;;8.00;99.90;;;;;;5005842;28;20220;-58
2022/11/24 10:38:56;;;;;;;13.13;6.70;;;8.10;99.90;;;;;;5018698;28;20228;-53
2022/11/24 10:41:39;;;;;;;19.33;6.97;;;8.20;99.90;;;;;;4999566;28;20203;-53
2022/11/24 10:44:12;;;;;;;23.57;6.83;;;8.20;99.90;;;;;;5000672;28;20266;-56
2022/11/24 10:46:39;;;;;;;16.73;6.13;;;8.30;99.90;;;;;;5017455;28;20228;-54
2022/11/24 10:49:06;;;;;;;17.13;6.50;;;8.30;99.90;;;;;;5013001;28;20200;-58
2022/11/24 10:51:41;;;;;;;15.43;6.53;;;8.30;99.90;;;;;;5002857;28;20216;-55
2022/11/24 10:54:15;;;;;;;18.07;6.83;;;8.30;99.90;;;;;;5008055;28;20212;-55
2022/11/24 10:56:43;;;;;;;10.87;5.90;;;8.40;99.90;;;;;;5000763;28;20245;-54
2022/11/24 10:59:30;;;;;;;15.80;5.63;;;8.40;99.90;;;;;;4998874;28;20287;-58
2022/11/24 11:01:59;;;;;;;12.90;5.70;;;8.40;99.90;;;;;;5010465;28;20212;-59
2022/11/24 11:04:28;;;;;;;16.87;6.00;;;8.40;99.90;;;;;;5004443;28;20200;-58
2022/11/24 11:07:18;;;;;;;19.83;6.73;;;8.40;99.90;;;;;;5017787;28;20650;-58
2022/11/24 11:09:45;;;;;;;19.33;6.60;;;8.40;99.90;;;;;;5012799;28;20208;-60
2022/11/24 11:12:20;;;;;;;12.90;6.43;;;8.40;99.90;;;;;;4998600;28;20206;-59
2022/11/24 11:14:47;;;;;;;15.97;8.87;;;8.40;99.90;;;;;;4999649;28;20289;-54
2022/11/24 11:17:33;;;;;;;18.77;7.07;;;8.50;99.90;;;;;;5005909;28;20300;-53
2022/11/24 11:20:06;;;;;;;15.33;5.80;;;8.60;99.90;;;;;;5015077;28;20227;-55
2022/11/24 11:22:36;;;;;;;18.70;5.50;;;8.60;99.90;;;;;;5008260;28;20212;-56
2022/11/24 11:25:18;;;;;;;19.10;6.60;;;8.70;99.90;;;;;;5009690;28;20232;-55
2022/11/24 11:27:45;;;;;;;15.40;8.70;;;8.80;99.90;;;;;;5005784;28;20216;-59
2022/11/24 11:30:22;;;;;;;12.00;6.23;;;8.80;99.90;;;;;;4995991;28;20224;-56
2022/11/24 11:32:53;;;;;;;11.20;5.33;;;8.80;99.90;;;;;;5004954;28;20318;-52
2022/11/24 11:35:21;;;;;;;15.70;6.00;;;8.90;99.90;;;;;;5002154;28;20251;-58
2022/11/24 11:37:52;;;;;;;14.27;5.90;;;8.90;99.90;;;;;;5010874;28;20200;-55
2022/11/24 11:40:23;;;;;;;14.50;6.60;;;8.90;99.90;;;;;;5002393;28;20267;-54
2022/11/24 11:42:56;;;;;;;15.53;7.03;;;9.00;99.90;;;;;;5001017;28;20212;-54
2022/11/24 11:45:27;;;;;;;17.07;6.40;;;9.00;99.90;;;;;;4979949;28;20230;-58
2022/11/24 11:48:03;;;;;;;19.07;6.20;;;9.00;99.90;;;;;;4998165;28;20763;-56
2022/11/24 11:50:41;;;;;;;15.50;6.17;;;9.00;99.90;;;;;;5010441;28;20219;-60
2022/11/24 11:53:19;;;;;;;15.37;6.73;;;9.10;99.90;;;;;;5013587;28;20206;-52
2022/11/24 11:56:09;;;;;;;15.77;5.77;;;9.10;99.90;;;;;;5014970;28;20227;-58
2022/11/24 11:59:09;;;;;;;20.47;5.27;;;9.10;99.90;;;;;;5009555;28;20587;-57
2022/11/24 12:01:50;;;;;;;18.10;6.40;;;9.10;99.90;;;;;;4966954;28;20835;-60
2022/11/24 12:04:31;;;;;;;14.70;5.40;;;9.10;99.90;;;;;;5005075;28;20203;-55
2022/11/24 12:07:32;;;;;;;13.80;6.10;;;9.10;99.90;;;;;;5000714;28;20230;-60
2022/11/24 12:10:09;;;;;;;17.60;5.67;;;9.20;99.90;;;;;;5001501;28;21670;-56
2022/11/24 12:12:50;;;;;;;15.77;5.53;;;9.20;99.90;;;;;;5004777;28;20643;-58
2022/11/24 12:15:26;;;;;;;15.47;5.87;;;9.20;99.90;;;;;;4991241;28;20224;-55
2022/11/24 12:18:04;;;;;;;13.53;5.63;;;9.20;99.90;;;;;;5004957;28;20295;-59
2022/11/24 12:20:45;;;;;;;12.77;5.97;;;9.20;99.90;;;;;;4999595;28;20211;-52
2022/11/24 12:23:21;;;;;;;14.63;5.93;;;9.20;99.90;;;;;;5004148;28;20207;-60
2022/11/24 12:25:59;;;;;;;22.00;6.47;;;9.20;99.90;;;;;;5005995;28;20227;-59
2022/11/24 12:28:36;;;;;;;14.50;5.57;;;9.20;99.90;;;;;;4999917;28;20200;-59
2022/11/24 12:31:06;;;;;;;10.40;6.00;;;9.20;99.90;;;;;;5000879;28;20287;-58
2022/11/24 12:34:09;;;;;;;19.80;7.40;;;9.20;99.90;;;;;;5001187;28;20199;-58
2022/11/24 12:37:02;;;;;;;17.33;6.17;;;9.20;99.90;;;;;;5008055;28;20218;-61
2022/11/24 12:39:35;;;;;;;17.23;5.73;;;9.20;99.90;;;;;;5002846;28;20715;-59
2022/11/24 12:42:14;;;;;;;14.73;6.90;;;9.20;99.90;;;;;;5012352;28;20199;-59
2022/11/24 12:45:12;;;;;;;15.77;5.47;;;9.20;99.90;;;;;;5004791;28;20200;-59
2022/11/24 12:47:51;;;;;;;11.33;5.53;;;9.20;99.90;;;;;;4993883;28;23326;-59
2022/11/24 12:50:21;;;;;;;17.07;5.70;;;9.20;99.90;;;;;;5018792;28;20555;-59
2022/11/24 12:52:53;;;;;;;13.97;5.63;;;9.20;99.90;;;;;;5002758;28;20197;-59
2022/11/24 12:55:22;;;;;;;17.10;5.77;;;9.30;99.90;;;;;;4999555;28;20213;-50
2022/11/24 12:57:58;;;;;;;17.37;5.90;;;9.30;99.90;;;;;;5011414;28;20691;-55
2022/11/24 13:00:32;;;;;;;10.20;5.23;;;9.30;99.90;;;;;;5003120;28;20932;-54
2022/11/24 13:03:10;;;;;;;15.13;6.17;;;9.30;99.90;;;;;;4995042;28;20753;-55
2022/11/24 13:05:44;;;;;;;21.83;6.17;;;9.30;99.90;;;;;;5020278;28;20223;-54
2022/11/24 13:08:11;;;;;;;13.70;5.87;;;9.30;99.90;;;;;;5010408;28;20207;-51